createdAt,value
2017-11-12T11:00:03.616Z,16.60
2017-11-12T11:02:46.037Z,17.70
2017-11-12T11:05:28.512Z,18.20
2017-11-12T11:08:11.216Z,18.90
2017-11-12T11:10:54.737Z,19.00
2017-11-12T11:13:38.458Z,19.00
2017-11-12T11:16:21.198Z,19.10
2017-11-12T11:19:02.953Z,19.20
2017-11-12T11:21:45.684Z,19.30
2017-11-12T11:24:28.100Z,19.30
2017-11-12T11:27:10.751Z,19.40
2017-11-12T11:29:53.263Z,19.50
2017-11-12T11:32:36.892Z,19.60
2017-11-12T11:35:19.419Z,19.70
2017-11-12T11:38:01.853Z,19.70
2017-11-12T11:40:43.573Z,19.70
2017-11-12T11:43:26.156Z,19.80
2017-11-12T11:46:07.817Z,19.80
2017-11-12T11:48:51.451Z,20.00
2017-11-12T11:51:33.529Z,20.00
2017-11-12T11:54:16.714Z,19.90
2017-11-12T11:56:58.393Z,19.60
2017-11-12T11:59:41.040Z,19.60
2017-11-12T12:02:22.701Z,19.80
2017-11-12T12:05:05.303Z,19.80
2017-11-12T12:07:47.026Z,19.90
2017-11-12T12:10:29.709Z,19.80
2017-11-12T12:56:53.843Z,21.30
2017-11-12T14:08:07.372Z,20.60
2017-11-12T14:10:50.642Z,20.70
2017-11-12T14:13:32.121Z,20.70
2017-11-12T14:16:14.766Z,20.60
2017-11-12T14:18:42.304Z,20.60
2017-11-12T14:21:25.518Z,20.50
2017-11-12T14:24:07.932Z,20.50
2017-11-12T14:26:50.489Z,20.60
2017-11-12T14:29:31.905Z,20.70
2017-11-12T14:32:14.308Z,20.70
2017-11-12T14:34:55.926Z,20.70
2017-11-12T14:37:38.566Z,20.70
2017-11-12T14:40:20.146Z,20.70
2017-11-12T14:43:03.700Z,20.80
2017-11-12T14:45:45.509Z,20.80
2017-11-12T14:48:28.988Z,20.80
2017-11-12T14:51:10.665Z,20.80
2017-11-12T14:53:53.298Z,20.80
2017-11-12T14:56:35.073Z,20.80
2017-11-12T14:59:18.521Z,20.90
2017-11-12T15:02:12.441Z,20.90
2017-11-12T15:04:55.829Z,20.90
2017-11-12T15:07:37.492Z,20.90
2017-11-12T15:10:21.456Z,20.90
2017-11-12T15:13:03.290Z,20.90
2017-11-12T15:15:45.826Z,21.00
2017-11-12T15:18:27.442Z,21.00
2017-11-12T15:21:09.937Z,21.00
2017-11-12T15:23:52.782Z,21.00
2017-11-12T15:26:36.385Z,21.00
2017-11-12T15:29:17.965Z,21.00
2017-11-12T15:32:00.646Z,21.00
2017-11-12T15:34:43.573Z,21.00
2017-11-12T15:37:26.254Z,21.00
2017-11-12T15:40:08.079Z,21.00
2017-11-12T15:42:50.722Z,21.10
